Time;durP1;ratioP1;P1;durP2;ratioP2;P2;SDS_P1;SDS_P2;PMS_P1;PMS_P2;Temp;Humidity;BMP_temperature;BMP_pressure;BME280_temperature;BME280_humidity;BME280_pressure;Samples;Min_cycle;Max_cycle;Signal;HPM_P1;HPM_P2
2022/05/04 00:00:49;;;;;;;6.33;5.70;;;;;;;8.35;83.16;97125.00;5104760;28;20253;-83
2022/05/04 00:03:16;;;;;;;11.33;6.03;;;;;;;8.34;83.34;97115.59;5102905;28;20195;-84
2022/05/04 00:05:45;;;;;;;9.07;5.47;;;;;;;8.47;83.78;97122.00;5100524;28;20185;-85
2022/05/04 00:08:12;;;;;;;6.60;5.53;;;;;;;8.48;82.73;97118.50;5081136;28;20310;-82
2022/05/04 00:10:39;;;;;;;7.27;6.27;;;;;;;8.13;82.25;97094.78;5086332;28;20283;-84
2022/05/04 00:13:06;;;;;;;6.27;5.67;;;;;;;8.13;82.46;97118.00;5103464;28;20242;-84
2022/05/04 00:15:33;;;;;;;7.93;6.43;;;;;;;7.87;83.34;97099.16;5104587;28;20189;-85
2022/05/04 00:18:04;;;;;;;9.23;6.50;;;;;;;7.91;84.13;97131.69;5082886;28;20229;-83
2022/05/04 00:20:32;;;;;;;6.90;5.83;;;;;;;7.77;85.02;97129.53;5078934;28;20232;-84
2022/05/04 00:23:01;;;;;;;6.80;5.57;;;;;;;7.77;84.81;97124.41;5080122;28;20221;-84
2022/05/04 00:25:29;;;;;;;8.93;6.23;;;;;;;7.94;84.80;97127.25;5080044;28;20197;-84
2022/05/04 00:27:58;;;;;;;7.97;6.20;;;;;;;8.13;84.04;97125.72;5082821;28;20221;-83
2022/05/04 00:30:26;;;;;;;8.37;5.37;;;;;;;8.21;83.85;97134.03;5080220;28;20186;-85
2022/05/04 00:32:54;;;;;;;8.20;5.67;;;;;;;8.29;83.24;97131.22;5080519;28;20189;-84
2022/05/04 00:35:22;;;;;;;6.63;5.73;;;;;;;8.27;83.31;97124.41;5062224;28;20629;-84
2022/05/04 00:37:51;;;;;;;6.23;5.27;;;;;;;8.22;83.04;97094.44;5079452;28;20220;-85
2022/05/04 00:40:18;;;;;;;6.80;6.10;;;;;;;8.10;82.65;97124.97;5078525;28;20195;-84
2022/05/04 00:42:47;;;;;;;7.67;5.30;;;;;;;7.80;82.51;97121.72;5079819;28;20185;-84
2022/05/04 00:45:14;;;;;;;7.37;4.47;;;;;;;7.41;81.89;97105.00;5078137;28;20194;-85
2022/05/04 00:47:43;;;;;;;5.70;4.67;;;;;;;7.01;83.45;97101.97;5079630;28;20726;-84
2022/05/04 00:50:11;;;;;;;9.60;5.20;;;;;;;6.77;84.48;97092.44;5077638;28;20629;-85
2022/05/04 00:52:41;;;;;;;7.03;5.50;;;;;;;6.64;85.06;97083.38;5077836;28;20195;-85
2022/05/04 00:55:09;;;;;;;5.73;4.60;;;;;;;7.10;84.79;97125.72;5087187;28;20216;-85
2022/05/04 01:00:28;;;;;;;7.47;4.90;;;;;;;7.38;82.63;97102.50;5092314;28;20192;-84
2022/05/04 01:02:59;;;;;;;5.73;4.60;;;;;;;7.54;82.58;97101.13;5082022;28;20202;-83
2022/05/04 01:05:26;;;;;;;5.07;4.53;;;;;;;7.68;82.17;97103.25;5079910;28;20228;-85
2022/05/04 01:07:55;;;;;;;5.23;4.60;;;;;;;7.76;80.38;97112.41;5067263;28;20229;-85
2022/05/04 01:10:22;;;;;;;6.60;4.77;;;;;;;7.93;81.10;97111.84;5076107;28;20278;-85
2022/05/04 01:12:52;;;;;;;6.97;4.53;;;;;;;8.09;80.67;97131.91;5058514;28;20200;-84
2022/05/04 01:15:21;;;;;;;6.20;4.30;;;;;;;8.05;79.34;97129.47;5076184;28;20197;-84
2022/05/04 01:17:49;;;;;;;5.07;4.50;;;;;;;7.82;80.25;97124.25;5090297;28;20273;-84
2022/05/04 01:20:19;;;;;;;4.97;4.20;;;;;;;7.75;80.21;97126.19;5078900;28;20203;-83
2022/05/04 01:22:46;;;;;;;6.37;4.90;;;;;;;7.78;81.16;97120.94;5079222;28;20623;-84
2022/05/04 01:25:14;;;;;;;5.90;4.33;;;;;;;7.59;80.37;97091.50;5096662;28;20245;-84
2022/05/04 01:27:41;;;;;;;5.47;4.60;;;;;;;7.57;80.68;97092.44;5079324;28;20220;-85
2022/05/04 01:30:11;;;;;;;7.90;5.30;;;;;;;7.55;81.18;97082.19;5097569;28;20199;-84
2022/05/04 01:32:39;;;;;;;7.50;5.70;;;;;;;7.84;80.50;97131.03;5098286;28;20852;-84
2022/05/04 01:35:07;;;;;;;8.63;5.70;;;;;;;7.00;80.20;97041.94;5097246;28;20492;-84
2022/05/04 01:37:37;;;;;;;7.97;6.00;;;;;;;7.31;80.57;97124.22;5096589;28;20192;-84
2022/05/04 01:40:07;;;;;;;6.60;5.57;;;;;;;7.02;81.97;97106.25;5097016;28;20227;-85
2022/05/04 01:42:34;;;;;;;5.50;4.90;;;;;;;6.96;84.26;97116.75;5097112;28;20184;-84
2022/05/04 01:45:03;;;;;;;6.87;5.23;;;;;;;6.93;83.31;97081.63;5078935;28;20193;-84
2022/05/04 01:47:30;;;;;;;7.37;5.67;;;;;;;7.08;83.81;97111.22;5061948;28;20195;-84
2022/05/04 01:49:57;;;;;;;6.30;4.77;;;;;;;7.23;84.18;97121.03;5060474;28;20667;-84
2022/05/04 01:52:25;;;;;;;7.30;5.37;;;;;;;7.16;84.06;97101.50;5084872;28;20191;-84
2022/05/04 01:54:52;;;;;;;6.23;5.63;;;;;;;7.32;83.51;97121.59;5076641;28;20199;-84
2022/05/04 01:57:20;;;;;;;6.30;5.37;;;;;;;7.14;83.91;97088.69;5097459;28;20189;-84
2022/05/04 01:59:47;;;;;;;9.67;6.33;;;;;;;7.20;84.25;97116.81;5098304;28;20693;-84
2022/05/04 02:02:16;;;;;;;6.63;5.40;;;;;;;7.12;84.69;97113.66;5098667;28;20191;-83
2022/05/04 02:04:43;;;;;;;6.90;5.20;;;;;;;7.06;84.77;97108.69;5096889;28;20188;-83
2022/05/04 02:07:12;;;;;;;7.77;5.30;;;;;;;7.13;84.10;97099.88;5083024;28;20180;-84
2022/05/04 02:09:41;;;;;;;5.47;4.90;;;;;;;7.35;83.66;97126.66;5098425;28;20238;-84
2022/05/04 02:12:09;;;;;;;5.97;5.37;;;;;;;7.16;83.73;97081.75;5097091;28;20196;-83
2022/05/04 02:14:36;;;;;;;5.43;4.80;;;;;;;7.51;83.08;97134.72;5079100;28;20190;-83
2022/05/04 02:17:03;;;;;;;8.03;5.50;;;;;;;7.68;83.30;97135.03;5103175;28;20240;-83
2022/05/04 02:19:32;;;;;;;7.33;4.77;;;;;;;7.59;82.47;97114.69;5082475;28;20223;-84
2022/05/04 02:21:59;;;;;;;9.67;5.50;;;;;;;7.46;82.66;97092.78;5078864;28;20207;-84
2022/05/04 02:24:26;;;;;;;6.53;4.93;;;;;;;7.42;82.41;97100.69;5097834;28;20188;-84
2022/05/04 02:26:55;;;;;;;6.13;5.13;;;;;;;7.65;83.26;97124.81;5096599;28;20194;-85
2022/05/04 02:29:24;;;;;;;5.97;4.97;;;;;;;7.55;83.59;97131.16;5097007;28;20283;-84
2022/05/04 02:31:51;;;;;;;6.87;5.00;;;;;;;7.52;82.70;97139.00;5095676;28;20196;-83
2022/05/04 02:34:19;;;;;;;7.67;5.20;;;;;;;7.31;84.54;97130.22;5107847;28;20193;-84
2022/05/04 02:39:32;;;;;;;9.03;5.77;;;;;;;7.48;83.78;97129.66;5116998;28;20208;-84
2022/05/04 02:42:01;;;;;;;6.13;5.37;;;;;;;7.42;84.33;97111.00;5116802;28;20185;-83
2022/05/04 02:44:29;;;;;;;6.93;5.53;;;;;;;7.45;83.33;97106.59;5117376;28;20188;-85
2022/05/04 02:47:01;;;;;;;6.90;4.40;;;;;;;7.61;83.17;97136.09;5105461;28;20250;-84
2022/05/04 02:49:28;;;;;;;5.33;4.83;;;;;;;7.54;83.49;97129.47;5096778;28;20239;-84
2022/05/04 02:51:55;;;;;;;5.50;5.00;;;;;;;7.18;83.42;97097.16;5097254;28;20194;-83
2022/05/04 02:54:23;;;;;;;6.67;5.17;;;;;;;7.52;83.80;97149.31;5096923;28;20188;-83
2022/05/04 02:56:54;;;;;;;6.00;5.23;;;;;;;7.35;83.85;97147.25;5078968;28;20214;-83
2022/05/04 02:59:21;;;;;;;7.37;6.00;;;;;;;7.21;84.61;97127.97;5095873;28;20230;-84
2022/05/04 03:04:33;;;;;;;5.93;5.30;;;;;;;7.07;85.13;97137.84;5077899;28;20200;-84
2022/05/04 03:07:00;;;;;;;9.83;5.77;;;;;;;7.11;84.34;97142.03;5077681;28;20203;-83
2022/05/04 03:09:27;;;;;;;6.80;4.60;;;;;;;7.01;85.00;97118.28;5074631;28;20276;-83
2022/05/04 03:11:56;;;;;;;7.50;4.80;;;;;;;7.16;84.21;97155.59;5077619;28;20198;-84
2022/05/04 03:14:28;;;;;;;5.53;4.97;;;;;;;6.97;84.21;97131.28;5095403;28;20193;-83
2022/05/04 03:16:56;;;;;;;6.00;4.87;;;;;;;6.99;85.49;97158.66;5095735;28;20228;-84
2022/05/04 03:19:24;;;;;;;7.20;5.40;;;;;;;6.72;85.82;97143.22;5076667;28;20188;-82
2022/05/04 03:21:52;;;;;;;8.57;5.00;;;;;;;6.92;85.72;97164.06;5100020;28;20207;-85
2022/05/04 03:24:21;;;;;;;6.93;5.40;;;;;;;6.70;85.45;97171.53;5099568;28;20201;-89
2022/05/04 03:26:50;;;;;;;6.60;5.03;;;;;;;6.57;85.55;97176.19;5096701;28;20761;-85
2022/05/04 03:29:17;;;;;;;6.63;5.20;;;;;;;6.36;87.11;97170.78;5083210;28;20272;-83
2022/05/04 03:31:47;;;;;;;6.73;5.47;;;;;;;6.23;86.30;97157.44;5100216;28;20715;-85
2022/05/04 03:34:14;;;;;;;7.83;5.43;;;;;;;6.39;87.14;97186.13;5076291;28;20195;-84
2022/05/04 03:36:45;;;;;;;6.87;5.20;;;;;;;6.09;86.57;97146.66;5103302;28;20179;-84
2022/05/04 03:39:12;;;;;;;7.30;5.43;;;;;;;6.26;87.56;97162.50;5101199;28;20669;-84
2022/05/04 03:41:39;;;;;;;9.07;6.83;;;;;;;6.56;87.58;97183.94;5079802;28;20599;-84
2022/05/04 03:44:06;;;;;;;6.07;5.20;;;;;;;6.74;86.51;97182.59;5093238;28;20269;-83
2022/05/04 03:46:46;;;;;;;7.93;5.70;;;;;;;7.20;85.28;97195.81;5091661;28;20177;-86
2022/05/04 03:49:16;;;;;;;5.67;5.07;;;;;;;7.22;84.02;97166.56;5092086;28;20215;-83
2022/05/04 03:51:43;;;;;;;6.57;5.53;;;;;;;7.62;83.17;97201.38;5091368;28;20282;-82
2022/05/04 03:54:12;;;;;;;6.30;4.87;;;;;;;8.03;81.87;97201.75;5091778;28;20189;-83
2022/05/04 03:56:40;;;;;;;7.03;4.43;;;;;;;8.17;79.25;97170.31;5076060;28;20236;-86
2022/05/04 03:59:08;;;;;;;4.80;4.37;;;;;;;8.21;78.71;97152.09;5095276;28;20690;-83
2022/05/04 04:01:36;;;;;;;8.30;4.63;;;;;;;8.57;77.48;97187.88;5094009;28;20552;-89
2022/05/04 04:04:06;;;;;;;9.53;5.93;;;;;;;8.69;77.21;97210.66;5098630;28;20246;-85
2022/05/04 04:06:34;;;;;;;6.10;5.10;;;;;;;8.34;77.95;97208.47;5101722;28;20184;-83
2022/05/04 04:09:03;;;;;;;7.37;5.77;;;;;;;8.23;79.23;97190.75;5104478;28;20654;-83
2022/05/04 04:11:30;;;;;;;6.63;5.30;;;;;;;8.12;78.22;97188.50;5096456;28;20197;-84
2022/05/04 04:13:58;;;;;;;7.50;6.13;;;;;;;7.82;79.11;97178.38;5084065;28;20197;-87
2022/05/04 04:16:26;;;;;;;6.17;5.20;;;;;;;7.94;79.47;97211.50;5080480;28;20782;-84
2022/05/04 04:18:54;;;;;;;7.67;5.70;;;;;;;7.68;80.64;97227.81;5095547;28;20224;-85
2022/05/04 04:24:13;;;;;;;8.10;6.43;;;;;;;7.56;82.99;97224.78;5078539;28;20776;-87
2022/05/04 04:26:41;;;;;;;6.53;5.80;;;;;;;7.63;82.96;97229.69;5077509;28;20192;-84
2022/05/04 04:29:08;;;;;;;6.13;5.53;;;;;;;7.43;82.95;97161.63;5085221;28;20283;-85
2022/05/04 04:31:35;;;;;;;12.17;7.50;;;;;;;8.01;82.63;97208.69;5114646;28;20269;-88
2022/05/04 04:34:03;;;;;;;15.60;8.50;;;;;;;7.97;81.12;97180.47;5079337;28;20184;-93
2022/05/04 04:36:35;;;;;;;17.73;11.40;;;;;;;8.23;80.75;97194.16;5099777;28;20196;-92
2022/05/04 04:39:03;;;;;;;8.57;6.17;;;;;;;8.18;80.77;97183.16;5102991;28;20188;-93
2022/05/04 04:41:31;;;;;;;7.47;5.33;;;;;;;8.41;79.98;97202.22;5084029;28;20218;-92
2022/05/04 04:43:58;;;;;;;8.90;5.47;;;;;;;8.31;80.26;97211.13;5097864;28;20188;-87
2022/05/04 04:46:27;;;;;;;8.33;6.10;;;;;;;8.31;81.01;97230.03;5094102;28;20189;-84
2022/05/04 04:49:21;;;;;;;6.37;5.23;;;;;;;8.22;81.50;97225.19;5101131;28;20212;-84
2022/05/04 04:51:48;;;;;;;11.33;5.63;;;;;;;7.74;81.78;97126.25;5106664;28;20214;-84
2022/05/04 04:54:15;;;;;;;7.03;5.43;;;;;;;8.28;81.70;97213.84;5079615;28;20199;-85
2022/05/04 04:56:42;;;;;;;10.33;6.30;;;;;;;8.21;81.68;97197.69;5098916;28;20189;-89
2022/05/04 04:59:10;;;;;;;6.77;6.07;;;;;;;8.43;82.03;97219.31;5095121;28;20615;-88
2022/05/04 05:01:38;;;;;;;16.17;7.13;;;;;;;8.42;81.33;97214.19;5079294;28;20562;-89
2022/05/04 05:04:05;;;;;;;8.70;6.87;;;;;;;8.34;81.12;97192.97;5095656;28;20185;-85
2022/05/04 05:06:32;;;;;;;7.40;6.20;;;;;;;8.51;80.74;97201.81;5094231;28;20189;-85
2022/05/04 05:08:59;;;;;;;12.90;6.30;;;;;;;8.49;81.33;97221.66;5097491;28;20220;-87
2022/05/04 05:11:26;;;;;;;9.37;5.77;;;;;;;8.35;81.50;97204.97;5081602;28;20192;-86
2022/05/04 05:16:41;;;;;;;7.03;5.73;;;;;;;8.45;80.63;97216.69;5100708;28;20184;-85
2022/05/04 05:19:08;;;;;;;7.73;5.30;;;;;;;8.49;81.14;97218.28;5100124;28;20185;-86
2022/05/04 05:21:36;;;;;;;8.87;5.93;;;;;;;8.40;80.38;97187.59;5097952;28;20199;-87
2022/05/04 05:24:05;;;;;;;8.77;5.80;;;;;;;8.74;80.38;97212.19;5096870;28;20694;-87
2022/05/04 05:26:33;;;;;;;6.80;5.20;;;;;;;8.51;80.09;97195.84;5080943;28;20623;-87
2022/05/04 05:29:01;;;;;;;6.20;5.60;;;;;;;8.54;81.35;97217.22;5095186;28;20212;-87
2022/05/04 05:31:28;;;;;;;7.30;5.33;;;;;;;8.29;82.00;97143.28;5073890;28;20189;-84
2022/05/04 05:33:57;;;;;;;6.77;5.13;;;;;;;8.65;81.05;97211.66;5075633;28;20188;-85
2022/05/04 05:36:24;;;;;;;5.93;4.53;;;;;;;8.54;81.40;97206.88;5074885;28;20196;-84
2022/05/04 05:38:52;;;;;;;6.93;4.90;;;;;;;8.18;80.59;97094.63;5089667;28;20176;-83
2022/05/04 05:41:19;;;;;;;7.23;5.10;;;;;;;8.96;79.95;97189.00;5081054;28;20197;-83
2022/05/04 05:43:47;;;;;;;7.43;5.30;;;;;;;9.32;78.46;97208.28;5095504;28;20188;-89
2022/05/04 05:46:15;;;;;;;9.57;6.90;;;;;;;9.61;77.34;97215.75;5103077;28;20196;-89
2022/05/04 05:48:42;;;;;;;13.43;6.10;;;;;;;9.71;76.37;97180.88;5106057;28;20185;-86
2022/05/04 05:51:11;;;;;;;6.73;5.00;;;;;;;10.23;74.19;97220.19;5087639;28;20189;-94
2022/05/04 05:53:40;;;;;;;14.77;6.00;;;;;;;10.86;73.11;97225.19;5094028;28;20193;-95
2022/05/04 05:56:08;;;;;;;9.93;5.63;;;;;;;11.29;71.04;97230.13;5095382;28;20196;-87
2022/05/04 05:58:41;;;;;;;9.97;6.03;;;;;;;11.36;70.84;97222.94;5115983;28;20193;-87
2022/05/04 06:01:08;;;;;;;12.50;6.50;;;;;;;11.40;69.81;97212.34;5096767;28;20188;-95
2022/05/04 06:03:37;;;;;;;9.13;5.10;;;;;;;11.87;68.69;97214.50;5084308;28;20194;-84
2022/05/04 06:06:04;;;;;;;19.97;7.07;;;;;;;11.74;67.06;97164.09;5106167;28;20191;-91
2022/05/04 06:08:32;;;;;;;15.13;5.30;;;;;;;12.41;65.89;97226.50;5095341;28;20181;-88
2022/05/04 06:11:19;;;;;;;7.60;4.40;;;;;;;12.55;63.66;97196.31;5096969;28;20229;-83
2022/05/04 06:14:14;;;;;;;13.53;5.17;;;;;;;12.82;63.71;97233.91;5092969;28;20201;-90
2022/05/04 06:17:08;;;;;;;12.07;6.30;;;;;;;12.99;63.27;97228.69;5096178;28;20189;-87
2022/05/04 06:20:17;;;;;;;14.47;5.90;;;;;;;13.12;63.19;97228.91;5097148;28;20176;-85
2022/05/04 06:23:22;;;;;;;21.97;8.17;;;;;;;13.21;63.48;97230.19;5117568;28;20195;-84
2022/05/04 06:26:06;;;;;;;11.10;6.13;;;;;;;13.13;63.00;97214.16;5100912;28;20185;-86
2022/05/04 06:28:35;;;;;;;8.47;6.13;;;;;;;13.27;62.95;97222.06;5099681;28;20174;-84
2022/05/04 06:34:06;;;;;;;15.47;7.57;;;;;;;13.50;62.03;97216.44;5111388;28;20183;-85
2022/05/04 06:36:39;;;;;;;12.20;7.07;;;;;;;13.77;62.26;97220.97;5104085;28;20202;-84
2022/05/04 06:39:07;;;;;;;12.37;7.30;;;;;;;13.82;61.89;97212.91;5082237;28;20191;-85
2022/05/04 06:41:38;;;;;;;17.40;10.03;;;;;;;14.06;60.51;97224.53;5086246;28;20189;-85
2022/05/04 06:44:10;;;;;;;12.27;6.50;;;;;;;14.12;59.40;97231.16;5082182;28;20646;-85
2022/05/04 06:46:41;;;;;;;9.00;6.70;;;;;;;13.93;60.37;97194.91;5104384;28;20217;-83
2022/05/04 06:49:17;;;;;;;14.60;7.17;;;;;;;14.23;60.42;97228.78;5104826;28;20242;-83
2022/05/04 06:51:45;;;;;;;11.93;7.30;;;;;;;14.25;60.23;97222.56;5084027;28;20208;-85
2022/05/04 06:54:16;;;;;;;22.53;8.83;;;;;;;14.51;60.45;97218.47;5108779;28;20205;-84
2022/05/04 06:56:51;;;;;;;12.93;7.20;;;;;;;14.72;59.26;97232.03;5092698;28;20299;-84
2022/05/04 06:59:19;;;;;;;8.73;5.30;;;;;;;14.66;57.76;97228.88;5090996;28;20250;-84
2022/05/04 07:01:48;;;;;;;12.77;5.80;;;;;;;14.63;57.55;97216.00;5089473;28;20198;-85
2022/05/04 07:04:17;;;;;;;14.27;5.30;;;;;;;14.80;56.14;97235.00;5105225;28;20248;-84
2022/05/04 07:06:45;;;;;;;9.87;5.60;;;;;;;14.94;56.08;97215.00;5088433;28;20195;-85
2022/05/04 07:09:37;;;;;;;9.23;4.60;;;;;;;14.76;55.18;97212.66;5089193;28;20282;-84
2022/05/04 07:12:07;;;;;;;7.70;3.97;;;;;;;14.76;55.44;97215.25;5084485;28;20199;-84
2022/05/04 07:14:34;;;;;;;5.33;3.90;;;;;;;14.83;54.69;97206.16;5102227;28;20197;-84
2022/05/04 07:17:05;;;;;;;6.30;4.47;;;;;;;14.74;54.78;97217.97;5088035;28;20293;-84
2022/05/04 07:19:34;;;;;;;7.43;3.97;;;;;;;14.55;54.61;97214.75;5106037;28;20180;-84
2022/05/04 07:22:06;;;;;;;7.90;3.53;;;;;;;14.76;54.55;97218.72;5083412;28;20208;-85
2022/05/04 07:24:36;;;;;;;4.57;3.60;;;;;;;14.80;54.28;97188.94;5102305;28;20249;-83
2022/05/04 07:27:08;;;;;;;9.17;3.43;;;;;;;15.12;52.80;97216.53;5103095;28;20241;-82
2022/05/04 07:29:35;;;;;;;5.37;3.20;;;;;;;15.32;52.67;97212.69;5071321;28;20247;-84
2022/05/04 07:32:05;;;;;;;5.53;3.20;;;;;;;15.56;51.89;97207.75;5113967;28;20180;-84
2022/05/04 07:34:37;;;;;;;8.63;4.60;;;;;;;15.38;52.52;97166.16;5115747;28;20196;-85
2022/05/04 07:37:09;;;;;;;4.73;3.70;;;;;;;15.25;52.32;97206.19;5081875;28;20168;-85
2022/05/04 07:42:24;;;;;;;5.57;3.33;;;;;;;15.10;53.87;97207.97;5115821;28;20176;-83
2022/05/04 07:44:58;;;;;;;5.17;3.47;;;;;;;15.15;52.63;97205.03;5113473;28;20177;-85
2022/05/04 07:47:34;;;;;;;4.40;3.37;;;;;;;15.37;52.70;97216.66;5094216;28;20210;-82
2022/05/04 07:50:17;;;;;;;6.50;4.20;;;;;;;15.10;52.54;97121.03;5111043;28;20288;-84
2022/05/04 07:52:50;;;;;;;6.17;4.20;;;;;;;15.95;52.74;97213.88;5095921;28;20195;-84
2022/05/04 07:55:19;;;;;;;7.40;4.53;;;;;;;15.99;51.50;97168.31;5113633;28;20263;-85
2022/05/04 07:57:49;;;;;;;7.87;3.77;;;;;;;16.06;52.03;97216.63;5112060;28;20173;-84
2022/05/04 08:06:04;;;;;;;3.30;2.90;;;;;;;16.30;49.94;97215.03;5094563;28;20188;-84
2022/05/04 08:08:32;;;;;;;8.33;3.77;;;;;;;16.54;49.41;97203.94;5112679;28;20243;-86
2022/05/04 08:11:02;;;;;;;10.17;4.43;;;;;;;16.93;49.21;97224.78;5109655;28;20275;-86
2022/05/04 08:13:37;;;;;;;12.77;5.73;;;;;;;17.21;48.94;97228.97;5113742;28;20186;-85
2022/05/04 08:16:06;;;;;;;8.27;5.73;;;;;;;17.06;47.96;97215.97;5099199;28;20202;-85
2022/05/04 08:18:33;;;;;;;4.77;3.63;;;;;;;17.08;48.56;97214.09;5098326;28;20254;-84
2022/05/04 08:21:01;;;;;;;3.47;3.07;;;;;;;16.35;49.70;97204.28;5099884;28;20250;-83
2022/05/04 08:23:31;;;;;;;5.00;3.20;;;;;;;17.00;47.97;97207.75;5098033;28;20213;-84
2022/05/04 08:25:58;;;;;;;6.30;4.50;;;;;;;16.85;48.56;97183.47;5116077;28;20183;-85
2022/05/04 08:28:27;;;;;;;9.00;3.80;;;;;;;16.58;49.44;97125.19;5097176;28;20196;-85
2022/05/04 08:30:57;;;;;;;6.27;4.10;;;;;;;17.26;49.80;97201.53;5114759;28;20236;-84
2022/05/04 08:33:29;;;;;;;5.77;3.90;;;;;;;17.29;48.82;97209.16;5114852;28;20187;-85
2022/05/04 08:36:00;;;;;;;8.00;3.97;;;;;;;17.13;48.44;97169.28;5111880;28;20192;-84
2022/05/04 08:38:28;;;;;;;4.63;3.50;;;;;;;17.35;47.25;97187.78;5082814;28;20186;-84
2022/05/04 08:40:56;;;;;;;9.70;4.27;;;;;;;17.18;47.89;97171.59;5112501;28;20200;-84
2022/05/04 08:43:25;;;;;;;7.40;3.90;;;;;;;17.17;46.47;97159.44;5095389;28;20194;-85
2022/05/04 08:46:02;;;;;;;7.37;3.70;;;;;;;17.63;46.56;97205.88;5097004;28;20202;-84
2022/05/04 08:48:32;;;;;;;4.47;3.07;;;;;;;17.18;46.49;97193.38;5113144;28;20188;-84
2022/05/04 08:51:04;;;;;;;6.27;3.40;;;;;;;16.99;47.26;97180.72;5114712;28;20213;-85
2022/05/04 08:53:33;;;;;;;6.07;3.77;;;;;;;17.31;47.62;97181.09;5095454;28;20261;-84
2022/05/04 08:56:13;;;;;;;4.00;3.47;;;;;;;17.39;48.38;97199.75;5113535;28;20206;-83
2022/05/04 08:58:40;;;;;;;4.97;2.90;;;;;;;16.99;48.89;97178.13;5094768;28;20279;-85
2022/05/04 09:01:10;;;;;;;5.00;3.23;;;;;;;17.31;49.47;97204.66;5095028;28;20222;-85
2022/05/04 09:03:38;;;;;;;6.80;3.83;;;;;;;17.19;49.61;97179.34;5113732;28;20189;-84
2022/05/04 09:06:27;;;;;;;9.00;4.83;;;;;;;17.24;49.43;97206.03;5112860;28;20207;-85
2022/05/04 09:09:13;;;;;;;4.23;3.27;;;;;;;17.19;49.13;97205.50;5111910;28;20199;-85
2022/05/04 09:11:45;;;;;;;9.30;4.73;;;;;;;17.29;50.30;97196.06;5091920;28;20173;-84
2022/05/04 09:17:34;;;;;;;7.93;3.27;;;;;;;17.54;50.13;97189.97;5078356;28;20238;-84
2022/05/04 09:22:51;;;;;;;9.80;4.80;;;;;;;17.67;49.46;97154.97;5113342;28;20191;-85
2022/05/04 09:25:21;;;;;;;4.10;3.30;;;;;;;17.89;47.30;97135.88;5108884;28;20260;-84
2022/05/04 09:27:52;;;;;;;5.60;3.50;;;;;;;18.32;46.90;97199.09;5077495;28;20256;-84
2022/05/04 09:30:24;;;;;;;7.00;3.17;;;;;;;18.15;46.10;97173.28;5113574;28;20214;-83
2022/05/04 09:32:52;;;;;;;5.27;3.20;;;;;;;18.13;47.02;97193.53;5112855;28;20183;-84
2022/05/04 09:35:25;;;;;;;9.77;2.93;;;;;;;18.38;46.63;97191.59;5097276;28;20199;-84
2022/05/04 09:46:59;;;;;;;4.27;2.80;;;;;;;18.43;44.85;97181.66;5114630;28;20171;-85
2022/05/04 09:49:32;;;;;;;8.07;4.27;;;;;;;18.06;45.08;97119.75;5115043;28;20253;-85
2022/05/04 09:52:04;;;;;;;5.43;3.80;;;;;;;18.29;45.18;97171.31;5097718;28;20186;-84
2022/05/04 09:54:37;;;;;;;5.37;2.80;;;;;;;17.96;43.81;97117.94;5096612;28;20197;-85
2022/05/04 09:57:08;;;;;;;4.67;2.70;;;;;;;17.08;43.91;97100.75;5064556;28;20192;-84
2022/05/04 09:59:42;;;;;;;5.33;3.47;;;;;;;17.53;45.05;97172.59;5116321;28;20253;-84
2022/05/04 10:02:13;;;;;;;5.07;2.70;;;;;;;17.68;45.45;97176.75;5065581;28;20192;-84
2022/05/04 10:04:43;;;;;;;4.20;3.03;;;;;;;17.91;44.79;97170.66;5098788;28;20199;-88
2022/05/04 10:07:16;;;;;;;3.70;2.90;;;;;;;17.85;42.73;97166.72;5092875;28;20171;-85
2022/05/04 10:09:47;;;;;;;4.00;3.03;;;;;;;17.83;43.10;97157.28;5061740;28;20197;-88
2022/05/04 10:12:43;;;;;;;6.07;3.63;;;;;;;18.04;42.16;97152.25;5098734;28;20203;-86
2022/05/04 10:15:17;;;;;;;4.37;3.13;;;;;;;18.27;42.38;97167.13;5081553;28;20198;-84
2022/05/04 10:18:21;;;;;;;5.30;2.73;;;;;;;18.04;43.12;97179.31;5095383;28;20241;-84
2022/05/04 10:21:01;;;;;;;2.20;2.00;;;;;;;17.92;42.81;97171.50;5115360;28;20192;-84
2022/05/04 10:23:51;;;;;;;3.27;2.50;;;;;;;17.76;42.63;97175.22;5115606;28;20247;-85
2022/05/04 10:26:34;;;;;;;7.47;4.37;;;;;;;17.62;43.09;97178.00;5068262;28;20218;-85
2022/05/04 10:32:34;;;;;;;5.20;3.40;;;;;;;18.08;42.33;97175.53;5097689;28;20227;-85
2022/05/04 10:35:40;;;;;;;2.57;2.07;;;;;;;17.49;40.38;97130.09;5110273;28;20217;-84
2022/05/04 10:38:10;;;;;;;3.77;2.40;;;;;;;17.85;40.79;97173.72;5113761;28;20186;-83
2022/05/04 10:40:42;;;;;;;4.73;2.43;;;;;;;17.15;47.54;97167.41;5096063;28;20225;-84
2022/05/04 10:43:18;;;;;;;3.93;2.70;;;;;;;17.13;48.92;97134.44;5114333;28;20197;-84
2022/05/04 10:45:51;;;;;;;4.47;3.10;;;;;;;17.68;48.09;97161.84;5095345;28;20186;-84
2022/05/04 10:48:28;;;;;;;5.20;3.10;;;;;;;17.78;48.90;97147.13;5113437;28;20249;-84
2022/05/04 10:51:21;;;;;;;8.47;4.13;;;;;;;18.01;48.77;97148.06;5079854;28;20249;-84
2022/05/04 10:53:53;;;;;;;8.50;4.87;;;;;;;18.03;48.82;97166.34;5109135;28;20181;-83
2022/05/04 10:56:52;;;;;;;4.83;2.70;;;;;;;18.05;48.03;97160.03;5113899;28;20181;-84
2022/05/04 10:59:53;;;;;;;4.87;3.27;;;;;;;18.44;47.09;97153.66;5112409;28;20228;-85
2022/05/04 11:02:26;;;;;;;2.93;2.40;;;;;;;18.28;45.93;97092.78;5079149;28;20339;-84
2022/05/04 11:08:07;;;;;;;5.03;3.60;;;;;;;18.06;46.77;97118.91;5108300;28;20539;-85
2022/05/04 11:10:35;;;;;;;3.67;2.60;;;;;;;18.35;42.43;97149.88;5107647;28;20218;-83
2022/05/04 11:13:08;;;;;;;3.43;2.20;;;;;;;18.65;41.20;97144.13;5101981;28;20220;-84
2022/05/04 11:15:37;;;;;;;2.07;1.87;;;;;;;18.75;40.02;97134.63;5114636;28;20259;-85
2022/05/04 11:18:07;;;;;;;2.87;1.87;;;;;;;18.81;40.46;97138.56;5113188;28;20233;-83
2022/05/04 11:20:36;;;;;;;1.97;1.83;;;;;;;18.72;40.54;97147.13;5094341;28;20207;-85
2022/05/04 11:23:06;;;;;;;4.20;2.10;;;;;;;18.62;41.48;97126.84;5110061;28;20196;-85
2022/05/04 11:25:38;;;;;;;2.77;2.40;;;;;;;18.84;41.19;97139.16;5111590;28;20268;-84
2022/05/04 11:28:10;;;;;;;2.20;1.93;;;;;;;18.71;41.16;97114.81;5092393;28;20203;-83
2022/05/04 11:30:40;;;;;;;5.40;2.00;;;;;;;19.24;39.68;97136.88;5095065;28;20237;-85
2022/05/04 11:33:14;;;;;;;4.53;2.23;;;;;;;19.16;40.30;97139.28;5096181;28;20180;-84
2022/05/04 11:35:42;;;;;;;5.90;2.33;;;;;;;18.69;41.15;97099.19;5114386;28;20262;-84
2022/05/04 11:38:18;;;;;;;4.73;2.27;;;;;;;19.38;40.31;97121.75;5113487;28;20251;-84
2022/05/04 11:40:48;;;;;;;6.67;2.47;;;;;;;19.74;39.14;97125.81;5093514;28;20202;-84
2022/05/04 11:43:34;;;;;;;3.27;1.97;;;;;;;19.83;38.43;97095.34;5111510;28;20267;-84
2022/05/04 11:46:07;;;;;;;4.60;2.73;;;;;;;19.98;42.49;97118.59;5109152;28;20183;-85
2022/05/04 11:48:50;;;;;;;3.50;3.20;;;;;;;19.10;44.42;97038.19;5103966;28;20214;-84
2022/05/04 11:51:17;;;;;;;6.80;3.47;;;;;;;19.68;44.34;97115.00;5114402;28;20224;-84
2022/05/04 11:53:45;;;;;;;5.93;3.10;;;;;;;19.23;44.45;97104.53;5078838;28;20227;-84
2022/05/04 11:56:13;;;;;;;4.00;3.00;;;;;;;18.54;45.94;97076.78;5099894;28;20258;-84
2022/05/04 11:58:42;;;;;;;3.93;3.20;;;;;;;18.43;45.06;97070.63;5117513;28;20184;-84
2022/05/04 12:01:13;;;;;;;3.30;3.00;;;;;;;18.50;45.26;97066.63;5112340;28;20202;-84
2022/05/04 12:03:44;;;;;;;3.57;2.77;;;;;;;18.73;45.10;97104.19;5096789;28;20225;-84
2022/05/04 12:06:12;;;;;;;6.63;2.77;;;;;;;18.71;45.04;97059.72;5093377;28;20205;-84
2022/05/04 12:08:43;;;;;;;3.17;2.87;;;;;;;19.03;44.73;97086.06;5115095;28;20195;-82
2022/05/04 12:11:11;;;;;;;3.70;2.73;;;;;;;18.83;45.84;97082.38;5096047;28;20235;-85
2022/05/04 12:13:40;;;;;;;2.60;2.40;;;;;;;18.75;46.61;97104.91;5115274;28;20685;-83
2022/05/04 12:16:11;;;;;;;6.63;2.90;;;;;;;18.49;46.36;97092.00;5094142;28;20258;-83
2022/05/04 12:18:42;;;;;;;5.57;3.37;;;;;;;18.24;46.17;97094.78;5077707;28;20239;-85
2022/05/04 12:21:12;;;;;;;5.00;3.00;;;;;;;18.13;46.24;97086.06;5094679;28;20213;-85
2022/05/04 12:23:43;;;;;;;3.23;2.37;;;;;;;17.95;46.50;97075.16;5116748;28;20190;-84
2022/05/04 12:26:12;;;;;;;4.67;3.40;;;;;;;18.17;46.47;97082.25;5095811;28;20195;-85
2022/05/04 12:28:42;;;;;;;2.67;2.47;;;;;;;18.44;46.16;97082.84;5094622;28;20195;-83
2022/05/04 12:34:25;;;;;;;7.70;4.47;;;;;;;18.88;45.25;97056.59;5112751;28;20192;-85
2022/05/04 12:36:59;;;;;;;4.87;2.40;;;;;;;18.84;45.04;97070.91;5092385;28;20517;-85
2022/05/04 12:39:32;;;;;;;7.67;2.60;;;;;;;19.02;44.58;97077.34;5077381;28;20179;-83
2022/05/04 12:42:17;;;;;;;2.57;2.37;;;;;;;18.80;43.87;97079.97;5078447;28;20184;-84
2022/05/04 12:44:49;;;;;;;3.90;2.40;;;;;;;18.69;44.70;97066.88;5094447;28;20198;-84